sensor_id;sensor_type;location;lat;lon;timestamp;P1;durP1;ratioP1;P2;durP2;ratioP2
36001;SDS011;22070;50.922;5.430;2022-07-09T00:02:24;4.43;;;2.97;;
36001;SDS011;22070;50.922;5.430;2022-07-09T00:04:50;5.47;;;2.80;;
36001;SDS011;22070;50.922;5.430;2022-07-09T00:07:15;4.40;;;2.83;;
36001;SDS011;22070;50.922;5.430;2022-07-09T00:09:41;8.50;;;2.93;;
36001;SDS011;22070;50.922;5.430;2022-07-09T00:12:07;3.73;;;2.53;;
36001;SDS011;22070;50.922;5.430;2022-07-09T00:14:33;3.53;;;3.03;;
36001;SDS011;22070;50.922;5.430;2022-07-09T00:16:58;7.30;;;3.03;;
36001;SDS011;22070;50.922;5.430;2022-07-09T00:19:24;4.80;;;3.00;;
36001;SDS011;22070;50.922;5.430;2022-07-09T00:21:49;3.20;;;2.90;;
36001;SDS011;22070;50.922;5.430;2022-07-09T00:24:15;4.82;;;3.30;;
36001;SDS011;22070;50.922;5.430;2022-07-09T00:26:41;5.15;;;3.13;;
36001;SDS011;22070;50.922;5.430;2022-07-09T00:29:06;3.95;;;3.10;;
36001;SDS011;22070;50.922;5.430;2022-07-09T00:31:32;3.60;;;3.17;;
36001;SDS011;22070;50.922;5.430;2022-07-09T00:33:57;3.93;;;3.23;;
36001;SDS011;22070;50.922;5.430;2022-07-09T00:36:23;4.63;;;3.00;;
36001;SDS011;22070;50.922;5.430;2022-07-09T00:38:49;7.53;;;3.40;;
36001;SDS011;22070;50.922;5.430;2022-07-09T00:41:14;7.10;;;3.30;;
36001;SDS011;22070;50.922;5.430;2022-07-09T00:43:45;8.38;;;3.40;;
36001;SDS011;22070;50.922;5.430;2022-07-09T00:46:16;5.90;;;3.22;;
36001;SDS011;22070;50.922;5.430;2022-07-09T00:48:42;5.60;;;3.40;;
36001;SDS011;22070;50.922;5.430;2022-07-09T00:51:08;7.80;;;3.67;;
36001;SDS011;22070;50.922;5.430;2022-07-09T00:53:36;6.10;;;3.47;;
36001;SDS011;22070;50.922;5.430;2022-07-09T00:56:02;4.47;;;3.20;;
36001;SDS011;22070;50.922;5.430;2022-07-09T00:58:29;7.50;;;3.45;;
36001;SDS011;22070;50.922;5.430;2022-07-09T01:00:55;6.93;;;3.25;;
36001;SDS011;22070;50.922;5.430;2022-07-09T01:03:21;3.77;;;3.40;;
36001;SDS011;22070;50.922;5.430;2022-07-09T01:05:47;5.13;;;3.37;;
36001;SDS011;22070;50.922;5.430;2022-07-09T01:10:39;5.97;;;3.27;;
36001;SDS011;22070;50.922;5.430;2022-07-09T01:13:05;6.15;;;3.42;;
36001;SDS011;22070;50.922;5.430;2022-07-09T01:15:31;4.20;;;2.97;;
36001;SDS011;22070;50.922;5.430;2022-07-09T01:17:57;4.47;;;2.65;;
36001;SDS011;22070;50.922;5.430;2022-07-09T01:20:24;4.97;;;2.83;;
36001;SDS011;22070;50.922;5.430;2022-07-09T01:22:51;6.68;;;2.95;;
36001;SDS011;22070;50.922;5.430;2022-07-09T01:25:18;6.17;;;2.87;;
36001;SDS011;22070;50.922;5.430;2022-07-09T01:27:44;6.40;;;2.80;;
36001;SDS011;22070;50.922;5.430;2022-07-09T01:30:10;4.95;;;3.42;;
36001;SDS011;22070;50.922;5.430;2022-07-09T01:32:36;4.57;;;2.85;;
36001;SDS011;22070;50.922;5.430;2022-07-09T01:35:02;3.00;;;2.80;;
36001;SDS011;22070;50.922;5.430;2022-07-09T01:37:28;7.95;;;2.60;;
36001;SDS011;22070;50.922;5.430;2022-07-09T01:39:54;5.50;;;3.00;;
36001;SDS011;22070;50.922;5.430;2022-07-09T01:42:19;3.50;;;2.40;;
36001;SDS011;22070;50.922;5.430;2022-07-09T01:44:45;2.13;;;1.93;;
36001;SDS011;22070;50.922;5.430;2022-07-09T01:47:12;5.53;;;2.75;;
36001;SDS011;22070;50.922;5.430;2022-07-09T01:49:39;5.30;;;3.10;;
36001;SDS011;22070;50.922;5.430;2022-07-09T01:52:06;5.93;;;3.15;;
36001;SDS011;22070;50.922;5.430;2022-07-09T01:54:32;4.77;;;3.30;;
36001;SDS011;22070;50.922;5.430;2022-07-09T01:56:58;6.87;;;3.20;;
36001;SDS011;22070;50.922;5.430;2022-07-09T01:59:23;7.43;;;3.80;;
36001;SDS011;22070;50.922;5.430;2022-07-09T02:01:49;3.72;;;3.20;;
36001;SDS011;22070;50.922;5.430;2022-07-09T02:04:15;3.97;;;3.03;;
36001;SDS011;22070;50.922;5.430;2022-07-09T02:06:40;3.95;;;3.55;;
36001;SDS011;22070;50.922;5.430;2022-07-09T02:09:06;5.78;;;3.00;;
36001;SDS011;22070;50.922;5.430;2022-07-09T02:11:32;4.13;;;3.10;;
36001;SDS011;22070;50.922;5.430;2022-07-09T02:13:57;8.15;;;3.13;;
36001;SDS011;22070;50.922;5.430;2022-07-09T02:16:23;6.83;;;3.03;;
36001;SDS011;22070;50.922;5.430;2022-07-09T02:18:49;2.80;;;2.60;;
36001;SDS011;22070;50.922;5.430;2022-07-09T02:21:15;2.53;;;2.33;;
36001;SDS011;22070;50.922;5.430;2022-07-09T02:23:41;3.50;;;2.83;;
36001;SDS011;22070;50.922;5.430;2022-07-09T02:26:07;3.47;;;2.70;;
36001;SDS011;22070;50.922;5.430;2022-07-09T02:28:33;4.27;;;3.70;;
36001;SDS011;22070;50.922;5.430;2022-07-09T02:30:59;7.65;;;3.33;;
36001;SDS011;22070;50.922;5.430;2022-07-09T02:33:24;3.78;;;2.95;;
36001;SDS011;22070;50.922;5.430;2022-07-09T02:35:50;4.40;;;3.33;;
36001;SDS011;22070;50.922;5.430;2022-07-09T02:38:16;6.20;;;3.45;;
36001;SDS011;22070;50.922;5.430;2022-07-09T02:40:41;5.80;;;3.50;;
36001;SDS011;22070;50.922;5.430;2022-07-09T02:43:07;4.47;;;3.03;;
36001;SDS011;22070;50.922;5.430;2022-07-09T02:45:33;4.28;;;3.20;;
36001;SDS011;22070;50.922;5.430;2022-07-09T02:47:58;5.85;;;3.60;;
36001;SDS011;22070;50.922;5.430;2022-07-09T02:50:24;4.95;;;3.42;;
36001;SDS011;22070;50.922;5.430;2022-07-09T02:52:50;4.07;;;3.33;;
36001;SDS011;22070;50.922;5.430;2022-07-09T02:55:16;4.10;;;3.42;;
36001;SDS011;22070;50.922;5.430;2022-07-09T02:57:41;4.38;;;3.47;;
36001;SDS011;22070;50.922;5.430;2022-07-09T03:00:07;6.50;;;3.65;;
36001;SDS011;22070;50.922;5.430;2022-07-09T03:02:33;4.57;;;3.47;;
36001;SDS011;22070;50.922;5.430;2022-07-09T03:04:59;3.70;;;3.25;;
36001;SDS011;22070;50.922;5.430;2022-07-09T03:07:24;4.83;;;3.57;;
36001;SDS011;22070;50.922;5.430;2022-07-09T03:09:50;5.18;;;3.95;;
36001;SDS011;22070;50.922;5.430;2022-07-09T03:12:15;3.50;;;3.20;;
36001;SDS011;22070;50.922;5.430;2022-07-09T03:14:41;7.72;;;3.42;;
36001;SDS011;22070;50.922;5.430;2022-07-09T03:17:07;5.10;;;3.65;;
36001;SDS011;22070;50.922;5.430;2022-07-09T03:19:32;4.18;;;3.78;;
36001;SDS011;22070;50.922;5.430;2022-07-09T03:21:58;6.07;;;3.17;;
36001;SDS011;22070;50.922;5.430;2022-07-09T03:24:24;8.48;;;3.70;;
36001;SDS011;22070;50.922;5.430;2022-07-09T03:26:49;6.75;;;3.30;;
36001;SDS011;22070;50.922;5.430;2022-07-09T03:29:15;6.00;;;3.80;;
36001;SDS011;22070;50.922;5.430;2022-07-09T03:31:40;3.72;;;3.13;;
36001;SDS011;22070;50.922;5.430;2022-07-09T03:34:06;3.97;;;3.17;;
36001;SDS011;22070;50.922;5.430;2022-07-09T03:36:32;3.67;;;3.23;;
36001;SDS011;22070;50.922;5.430;2022-07-09T03:38:57;3.90;;;3.23;;
36001;SDS011;22070;50.922;5.430;2022-07-09T03:41:23;6.30;;;3.73;;
36001;SDS011;22070;50.922;5.430;2022-07-09T03:43:49;4.00;;;3.60;;
36001;SDS011;22070;50.922;5.430;2022-07-09T03:46:14;5.82;;;3.83;;
36001;SDS011;22070;50.922;5.430;2022-07-09T03:48:40;3.97;;;3.50;;
36001;SDS011;22070;50.922;5.430;2022-07-09T03:51:06;5.10;;;3.53;;
36001;SDS011;22070;50.922;5.430;2022-07-09T03:53:31;4.32;;;3.55;;
36001;SDS011;22070;50.922;5.430;2022-07-09T03:55:58;4.03;;;3.35;;
36001;SDS011;22070;50.922;5.430;2022-07-09T03:58:23;4.13;;;3.40;;
36001;SDS011;22070;50.922;5.430;2022-07-09T04:00:49;5.45;;;3.35;;
36001;SDS011;22070;50.922;5.430;2022-07-09T04:03:17;4.18;;;3.53;;
36001;SDS011;22070;50.922;5.430;2022-07-09T04:05:43;4.97;;;3.42;;
36001;SDS011;22070;50.922;5.430;2022-07-09T04:08:09;4.07;;;2.60;;
36001;SDS011;22070;50.922;5.430;2022-07-09T04:10:35;4.87;;;3.33;;
36001;SDS011;22070;50.922;5.430;2022-07-09T04:13:01;6.10;;;3.10;;
36001;SDS011;22070;50.922;5.430;2022-07-09T04:15:27;5.63;;;3.50;;
36001;SDS011;22070;50.922;5.430;2022-07-09T04:17:52;9.38;;;3.90;;
36001;SDS011;22070;50.922;5.430;2022-07-09T04:20:18;4.33;;;3.20;;
36001;SDS011;22070;50.922;5.430;2022-07-09T04:22:44;3.87;;;3.47;;
36001;SDS011;22070;50.922;5.430;2022-07-09T04:25:09;6.07;;;3.78;;
36001;SDS011;22070;50.922;5.430;2022-07-09T04:27:35;4.00;;;3.65;;
36001;SDS011;22070;50.922;5.430;2022-07-09T04:30:04;7.25;;;3.70;;
36001;SDS011;22070;50.922;5.430;2022-07-09T04:32:31;4.25;;;3.78;;
36001;SDS011;22070;50.922;5.430;2022-07-09T04:34:56;5.95;;;3.70;;
36001;SDS011;22070;50.922;5.430;2022-07-09T04:37:22;5.67;;;3.43;;
36001;SDS011;22070;50.922;5.430;2022-07-09T04:39:48;5.75;;;3.88;;
36001;SDS011;22070;50.922;5.430;2022-07-09T04:42:13;4.15;;;3.75;;
36001;SDS011;22070;50.922;5.430;2022-07-09T04:44:39;7.80;;;4.43;;
36001;SDS011;22070;50.922;5.430;2022-07-09T04:47:07;6.72;;;4.32;;
36001;SDS011;22070;50.922;5.430;2022-07-09T04:49:32;6.53;;;4.63;;
36001;SDS011;22070;50.922;5.430;2022-07-09T04:51:58;9.77;;;4.10;;
36001;SDS011;22070;50.922;5.430;2022-07-09T04:54:23;6.18;;;4.35;;
36001;SDS011;22070;50.922;5.430;2022-07-09T04:56:49;7.90;;;3.40;;
36001;SDS011;22070;50.922;5.430;2022-07-09T04:59:15;7.72;;;4.30;;
36001;SDS011;22070;50.922;5.430;2022-07-09T05:01:40;8.97;;;4.50;;
36001;SDS011;22070;50.922;5.430;2022-07-09T05:04:06;6.53;;;4.20;;
36001;SDS011;22070;50.922;5.430;2022-07-09T05:06:32;8.07;;;4.50;;
36001;SDS011;22070;50.922;5.430;2022-07-09T05:08:57;4.18;;;3.78;;
36001;SDS011;22070;50.922;5.430;2022-07-09T05:11:23;6.47;;;4.57;;
36001;SDS011;22070;50.922;5.430;2022-07-09T05:13:49;8.53;;;4.70;;
36001;SDS011;22070;50.922;5.430;2022-07-09T05:16:15;8.03;;;5.30;;
36001;SDS011;22070;50.922;5.430;2022-07-09T05:18:40;9.07;;;4.83;;
36001;SDS011;22070;50.922;5.430;2022-07-09T05:21:06;8.18;;;4.50;;
36001;SDS011;22070;50.922;5.430;2022-07-09T05:23:32;8.00;;;4.53;;
36001;SDS011;22070;50.922;5.430;2022-07-09T05:25:57;9.40;;;4.63;;
36001;SDS011;22070;50.922;5.430;2022-07-09T05:28:23;8.63;;;4.30;;
36001;SDS011;22070;50.922;5.430;2022-07-09T05:30:48;5.80;;;4.53;;
36001;SDS011;22070;50.922;5.430;2022-07-09T05:33:14;9.50;;;3.97;;
36001;SDS011;22070;50.922;5.430;2022-07-09T05:35:40;8.13;;;4.33;;
36001;SDS011;22070;50.922;5.430;2022-07-09T05:38:05;5.17;;;4.27;;
36001;SDS011;22070;50.922;5.430;2022-07-09T05:40:31;6.77;;;4.83;;
36001;SDS011;22070;50.922;5.430;2022-07-09T05:42:56;10.43;;;5.30;;
36001;SDS011;22070;50.922;5.430;2022-07-09T05:45:22;8.27;;;5.03;;
36001;SDS011;22070;50.922;5.430;2022-07-09T05:47:48;6.57;;;4.83;;
36001;SDS011;22070;50.922;5.430;2022-07-09T05:50:13;7.07;;;5.57;;
36001;SDS011;22070;50.922;5.430;2022-07-09T05:52:40;7.47;;;5.15;;
36001;SDS011;22070;50.922;5.430;2022-07-09T05:55:05;6.20;;;5.30;;
36001;SDS011;22070;50.922;5.430;2022-07-09T05:57:31;11.10;;;5.70;;
36001;SDS011;22070;50.922;5.430;2022-07-09T05:59:57;7.67;;;5.37;;
36001;SDS011;22070;50.922;5.430;2022-07-09T06:02:23;10.33;;;6.13;;
36001;SDS011;22070;50.922;5.430;2022-07-09T06:04:49;10.30;;;7.17;;
36001;SDS011;22070;50.922;5.430;2022-07-09T06:07:15;11.13;;;7.20;;
36001;SDS011;22070;50.922;5.430;2022-07-09T06:09:40;16.23;;;8.43;;
36001;SDS011;22070;50.922;5.430;2022-07-09T06:12:06;15.70;;;9.10;;
36001;SDS011;22070;50.922;5.430;2022-07-09T06:14:32;15.73;;;9.68;;
36001;SDS011;22070;50.922;5.430;2022-07-09T06:16:58;15.07;;;8.80;;
36001;SDS011;22070;50.922;5.430;2022-07-09T06:19:30;17.60;;;9.43;;
36001;SDS011;22070;50.922;5.430;2022-07-09T06:21:56;18.53;;;11.93;;
36001;SDS011;22070;50.922;5.430;2022-07-09T06:24:21;18.67;;;10.97;;
36001;SDS011;22070;50.922;5.430;2022-07-09T06:26:49;20.77;;;12.35;;
36001;SDS011;22070;50.922;5.430;2022-07-09T06:29:14;19.80;;;12.20;;
36001;SDS011;22070;50.922;5.430;2022-07-09T06:31:40;24.15;;;12.52;;
36001;SDS011;22070;50.922;5.430;2022-07-09T06:34:06;19.30;;;12.30;;
36001;SDS011;22070;50.922;5.430;2022-07-09T06:36:32;22.23;;;12.47;;
36001;SDS011;22070;50.922;5.430;2022-07-09T06:38:58;24.63;;;12.63;;
36001;SDS011;22070;50.922;5.430;2022-07-09T06:41:42;19.35;;;10.75;;
36001;SDS011;22070;50.922;5.430;2022-07-09T06:44:07;17.93;;;10.67;;
36001;SDS011;22070;50.922;5.430;2022-07-09T06:46:33;15.03;;;10.17;;
36001;SDS011;22070;50.922;5.430;2022-07-09T06:49:00;15.18;;;9.77;;
36001;SDS011;22070;50.922;5.430;2022-07-09T06:51:26;15.17;;;9.13;;
36001;SDS011;22070;50.922;5.430;2022-07-09T06:53:52;18.93;;;9.70;;
36001;SDS011;22070;50.922;5.430;2022-07-09T06:56:17;13.07;;;9.53;;
36001;SDS011;22070;50.922;5.430;2022-07-09T06:58:43;14.23;;;8.57;;
36001;SDS011;22070;50.922;5.430;2022-07-09T07:01:08;16.50;;;8.37;;
36001;SDS011;22070;50.922;5.430;2022-07-09T07:03:34;13.03;;;7.93;;
36001;SDS011;22070;50.922;5.430;2022-07-09T07:06:00;10.77;;;7.93;;
36001;SDS011;22070;50.922;5.430;2022-07-09T07:08:26;10.53;;;7.90;;
36001;SDS011;22070;50.922;5.430;2022-07-09T07:10:51;14.87;;;8.00;;
36001;SDS011;22070;50.922;5.430;2022-07-09T07:13:17;15.63;;;7.93;;
36001;SDS011;22070;50.922;5.430;2022-07-09T07:15:42;11.23;;;7.67;;
36001;SDS011;22070;50.922;5.430;2022-07-09T07:18:09;11.40;;;7.22;;
36001;SDS011;22070;50.922;5.430;2022-07-09T07:20:35;17.90;;;9.53;;
36001;SDS011;22070;50.922;5.430;2022-07-09T07:23:01;11.30;;;7.53;;
36001;SDS011;22070;50.922;5.430;2022-07-09T07:25:26;13.40;;;7.03;;
36001;SDS011;22070;50.922;5.430;2022-07-09T07:27:52;10.87;;;7.33;;
36001;SDS011;22070;50.922;5.430;2022-07-09T07:30:18;12.90;;;7.80;;
36001;SDS011;22070;50.922;5.430;2022-07-09T07:32:43;13.50;;;7.37;;
36001;SDS011;22070;50.922;5.430;2022-07-09T07:35:09;12.77;;;7.20;;
36001;SDS011;22070;50.922;5.430;2022-07-09T07:37:35;11.80;;;7.50;;
36001;SDS011;22070;50.922;5.430;2022-07-09T07:40:00;13.13;;;7.90;;
36001;SDS011;22070;50.922;5.430;2022-07-09T07:42:26;11.90;;;8.37;;
36001;SDS011;22070;50.922;5.430;2022-07-09T07:44:52;10.32;;;7.22;;
36001;SDS011;22070;50.922;5.430;2022-07-09T07:47:18;9.77;;;7.00;;
36001;SDS011;22070;50.922;5.430;2022-07-09T07:49:43;11.00;;;6.83;;
36001;SDS011;22070;50.922;5.430;2022-07-09T07:52:09;10.00;;;6.17;;
36001;SDS011;22070;50.922;5.430;2022-07-09T07:54:34;11.03;;;6.30;;
36001;SDS011;22070;50.922;5.430;2022-07-09T07:57:01;9.45;;;6.82;;
36001;SDS011;22070;50.922;5.430;2022-07-09T07:59:26;11.07;;;6.97;;
36001;SDS011;22070;50.922;5.430;2022-07-09T08:01:52;11.57;;;6.87;;
36001;SDS011;22070;50.922;5.430;2022-07-09T08:04:18;11.77;;;5.93;;
36001;SDS011;22070;50.922;5.430;2022-07-09T08:06:43;13.60;;;5.93;;
36001;SDS011;22070;50.922;5.430;2022-07-09T08:09:09;7.93;;;6.57;;
36001;SDS011;22070;50.922;5.430;2022-07-09T08:11:35;11.45;;;6.18;;
36001;SDS011;22070;50.922;5.430;2022-07-09T08:14:01;11.33;;;6.67;;
36001;SDS011;22070;50.922;5.430;2022-07-09T08:16:26;10.47;;;6.70;;
36001;SDS011;22070;50.922;5.430;2022-07-09T08:18:52;11.07;;;8.17;;
36001;SDS011;22070;50.922;5.430;2022-07-09T08:21:18;9.87;;;6.23;;
36001;SDS011;22070;50.922;5.430;2022-07-09T08:23:43;9.20;;;7.40;;
36001;SDS011;22070;50.922;5.430;2022-07-09T08:26:25;9.18;;;6.57;;
36001;SDS011;22070;50.922;5.430;2022-07-09T08:28:51;11.77;;;6.68;;
36001;SDS011;22070;50.922;5.430;2022-07-09T08:31:18;12.82;;;7.30;;
36001;SDS011;22070;50.922;5.430;2022-07-09T08:33:45;10.98;;;8.10;;
36001;SDS011;22070;50.922;5.430;2022-07-09T08:36:10;9.70;;;7.57;;
36001;SDS011;22070;50.922;5.430;2022-07-09T08:38:36;11.73;;;6.70;;
36001;SDS011;22070;50.922;5.430;2022-07-09T08:41:03;13.47;;;7.23;;
36001;SDS011;22070;50.922;5.430;2022-07-09T08:43:31;14.25;;;7.68;;
36001;SDS011;22070;50.922;5.430;2022-07-09T08:45:59;10.20;;;7.10;;
36001;SDS011;22070;50.922;5.430;2022-07-09T08:48:24;9.50;;;6.60;;
36001;SDS011;22070;50.922;5.430;2022-07-09T08:50:50;8.33;;;5.43;;
36001;SDS011;22070;50.922;5.430;2022-07-09T08:53:17;11.32;;;5.22;;
36001;SDS011;22070;50.922;5.430;2022-07-09T08:55:46;9.60;;;4.70;;
36001;SDS011;22070;50.922;5.430;2022-07-09T08:58:13;7.03;;;4.60;;
36001;SDS011;22070;50.922;5.430;2022-07-09T09:00:39;5.47;;;4.68;;
36001;SDS011;22070;50.922;5.430;2022-07-09T09:03:05;5.45;;;3.83;;
36001;SDS011;22070;50.922;5.430;2022-07-09T09:05:31;7.70;;;4.03;;
36001;SDS011;22070;50.922;5.430;2022-07-09T09:07:57;6.27;;;3.70;;
36001;SDS011;22070;50.922;5.430;2022-07-09T09:10:24;8.35;;;4.90;;
36001;SDS011;22070;50.922;5.430;2022-07-09T09:12:56;8.52;;;5.05;;
36001;SDS011;22070;50.922;5.430;2022-07-09T09:15:22;6.30;;;3.80;;
36001;SDS011;22070;50.922;5.430;2022-07-09T09:17:48;10.00;;;4.77;;
36001;SDS011;22070;50.922;5.430;2022-07-09T09:20:14;13.67;;;4.20;;
36001;SDS011;22070;50.922;5.430;2022-07-09T09:22:51;8.77;;;4.03;;
36001;SDS011;22070;50.922;5.430;2022-07-09T09:25:19;9.25;;;4.60;;
36001;SDS011;22070;50.922;5.430;2022-07-09T09:27:55;10.23;;;4.70;;
36001;SDS011;22070;50.922;5.430;2022-07-09T09:30:23;4.82;;;3.60;;
36001;SDS011;22070;50.922;5.430;2022-07-09T09:33:00;7.40;;;5.18;;
36001;SDS011;22070;50.922;5.430;2022-07-09T09:35:28;9.20;;;5.03;;
36001;SDS011;22070;50.922;5.430;2022-07-09T09:38:00;8.68;;;5.20;;
36001;SDS011;22070;50.922;5.430;2022-07-09T09:40:26;7.45;;;5.00;;
36001;SDS011;22070;50.922;5.430;2022-07-09T09:42:52;10.30;;;3.80;;
36001;SDS011;22070;50.922;5.430;2022-07-09T09:45:18;11.23;;;5.20;;
36001;SDS011;22070;50.922;5.430;2022-07-09T09:47:48;7.53;;;4.60;;
36001;SDS011;22070;50.922;5.430;2022-07-09T09:50:17;5.68;;;4.25;;
36001;SDS011;22070;50.922;5.430;2022-07-09T09:52:51;7.63;;;5.32;;
36001;SDS011;22070;50.922;5.430;2022-07-09T09:55:18;4.72;;;4.03;;
36001;SDS011;22070;50.922;5.430;2022-07-09T09:57:45;10.18;;;5.22;;
36001;SDS011;22070;50.922;5.430;2022-07-09T10:00:12;9.10;;;6.20;;
36001;SDS011;22070;50.922;5.430;2022-07-09T10:02:43;7.43;;;5.25;;
36001;SDS011;22070;50.922;5.430;2022-07-09T10:05:09;7.68;;;5.70;;
36001;SDS011;22070;50.922;5.430;2022-07-09T10:07:35;6.17;;;5.50;;
36001;SDS011;22070;50.922;5.430;2022-07-09T10:10:01;6.93;;;4.95;;
36001;SDS011;22070;50.922;5.430;2022-07-09T10:12:28;5.95;;;4.78;;
36001;SDS011;22070;50.922;5.430;2022-07-09T10:14:55;6.10;;;4.82;;
36001;SDS011;22070;50.922;5.430;2022-07-09T10:17:21;8.55;;;4.00;;
36001;SDS011;22070;50.922;5.430;2022-07-09T10:19:56;6.72;;;4.82;;
36001;SDS011;22070;50.922;5.430;2022-07-09T10:22:38;10.70;;;5.28;;
36001;SDS011;22070;50.922;5.430;2022-07-09T10:25:05;8.00;;;5.18;;
36001;SDS011;22070;50.922;5.430;2022-07-09T10:27:42;8.20;;;5.82;;
36001;SDS011;22070;50.922;5.430;2022-07-09T10:30:33;10.30;;;6.45;;
36001;SDS011;22070;50.922;5.430;2022-07-09T10:33:32;8.38;;;5.60;;
36001;SDS011;22070;50.922;5.430;2022-07-09T10:36:10;10.32;;;6.25;;
36001;SDS011;22070;50.922;5.430;2022-07-09T10:38:38;10.27;;;5.25;;
36001;SDS011;22070;50.922;5.430;2022-07-09T10:41:04;8.27;;;4.90;;
36001;SDS011;22070;50.922;5.430;2022-07-09T10:43:39;7.07;;;4.47;;
36001;SDS011;22070;50.922;5.430;2022-07-09T10:46:14;7.72;;;4.18;;
36001;SDS011;22070;50.922;5.430;2022-07-09T10:48:41;3.75;;;3.38;;
36001;SDS011;22070;50.922;5.430;2022-07-09T10:51:14;13.18;;;3.83;;
36001;SDS011;22070;50.922;5.430;2022-07-09T10:53:44;6.63;;;4.75;;
36001;SDS011;22070;50.922;5.430;2022-07-09T10:56:11;5.00;;;3.60;;
36001;SDS011;22070;50.922;5.430;2022-07-09T10:58:41;5.22;;;3.97;;
36001;SDS011;22070;50.922;5.430;2022-07-09T11:01:10;6.75;;;3.83;;
36001;SDS011;22070;50.922;5.430;2022-07-09T11:03:47;6.25;;;3.67;;
36001;SDS011;22070;50.922;5.430;2022-07-09T11:06:15;7.78;;;4.00;;
36001;SDS011;22070;50.922;5.430;2022-07-09T11:08:41;7.80;;;4.30;;
36001;SDS011;22070;50.922;5.430;2022-07-09T11:11:06;7.67;;;4.13;;
36001;SDS011;22070;50.922;5.430;2022-07-09T11:13:32;7.93;;;4.30;;
36001;SDS011;22070;50.922;5.430;2022-07-09T11:16:01;4.67;;;4.17;;
36001;SDS011;22070;50.922;5.430;2022-07-09T11:18:27;8.15;;;4.57;;
36001;SDS011;22070;50.922;5.430;2022-07-09T11:20:54;7.53;;;4.82;;
36001;SDS011;22070;50.922;5.430;2022-07-09T11:23:19;5.50;;;4.57;;
36001;SDS011;22070;50.922;5.430;2022-07-09T11:25:45;7.03;;;5.00;;
36001;SDS011;22070;50.922;5.430;2022-07-09T11:28:18;6.70;;;5.72;;
36001;SDS011;22070;50.922;5.430;2022-07-09T11:30:45;8.18;;;5.85;;
36001;SDS011;22070;50.922;5.430;2022-07-09T11:33:22;10.98;;;5.75;;
36001;SDS011;22070;50.922;5.430;2022-07-09T11:35:47;8.70;;;5.47;;
36001;SDS011;22070;50.922;5.430;2022-07-09T11:38:14;6.25;;;5.28;;
36001;SDS011;22070;50.922;5.430;2022-07-09T11:40:40;4.77;;;4.17;;
36001;SDS011;22070;50.922;5.430;2022-07-09T11:43:12;10.30;;;6.23;;
36001;SDS011;22070;50.922;5.430;2022-07-09T11:45:50;7.45;;;5.65;;
36001;SDS011;22070;50.922;5.430;2022-07-09T11:48:17;9.13;;;7.03;;
36001;SDS011;22070;50.922;5.430;2022-07-09T11:50:44;9.03;;;6.67;;
36001;SDS011;22070;50.922;5.430;2022-07-09T11:53:23;11.65;;;6.75;;
36001;SDS011;22070;50.922;5.430;2022-07-09T11:55:57;10.70;;;6.53;;
36001;SDS011;22070;50.922;5.430;2022-07-09T11:58:28;10.45;;;7.80;;
36001;SDS011;22070;50.922;5.430;2022-07-09T12:00:54;13.30;;;7.40;;
36001;SDS011;22070;50.922;5.430;2022-07-09T12:03:23;10.00;;;7.40;;
36001;SDS011;22070;50.922;5.430;2022-07-09T12:05:50;10.45;;;7.90;;
36001;SDS011;22070;50.922;5.430;2022-07-09T12:08:25;8.77;;;7.88;;
36001;SDS011;22070;50.922;5.430;2022-07-09T12:10:52;12.93;;;8.52;;
36001;SDS011;22070;50.922;5.430;2022-07-09T12:13:18;15.55;;;10.60;;
36001;SDS011;22070;50.922;5.430;2022-07-09T12:15:44;12.70;;;10.97;;
36001;SDS011;22070;50.922;5.430;2022-07-09T12:18:09;15.30;;;11.47;;
36001;SDS011;22070;50.922;5.430;2022-07-09T12:20:35;15.85;;;10.95;;
36001;SDS011;22070;50.922;5.430;2022-07-09T12:23:01;15.53;;;8.63;;
36001;SDS011;22070;50.922;5.430;2022-07-09T12:25:27;12.93;;;10.07;;
36001;SDS011;22070;50.922;5.430;2022-07-09T12:27:52;10.03;;;6.80;;
36001;SDS011;22070;50.922;5.430;2022-07-09T12:30:18;9.00;;;7.33;;
36001;SDS011;22070;50.922;5.430;2022-07-09T12:32:45;10.90;;;6.75;;
36001;SDS011;22070;50.922;5.430;2022-07-09T12:35:11;9.10;;;7.22;;
36001;SDS011;22070;50.922;5.430;2022-07-09T12:37:37;9.45;;;6.88;;
36001;SDS011;22070;50.922;5.430;2022-07-09T12:40:04;8.98;;;6.57;;
36001;SDS011;22070;50.922;5.430;2022-07-09T12:42:32;9.88;;;6.10;;
36001;SDS011;22070;50.922;5.430;2022-07-09T12:44:59;8.63;;;5.68;;
36001;SDS011;22070;50.922;5.430;2022-07-09T12:47:25;5.13;;;3.80;;
36001;SDS011;22070;50.922;5.430;2022-07-09T12:49:50;14.73;;;4.27;;
36001;SDS011;22070;50.922;5.430;2022-07-09T12:52:16;3.70;;;3.07;;
36001;SDS011;22070;50.922;5.430;2022-07-09T12:54:41;8.27;;;3.30;;
36001;SDS011;22070;50.922;5.430;2022-07-09T12:57:07;5.43;;;2.90;;
36001;SDS011;22070;50.922;5.430;2022-07-09T12:59:33;3.77;;;2.83;;
36001;SDS011;22070;50.922;5.430;2022-07-09T13:01:59;5.00;;;2.70;;
36001;SDS011;22070;50.922;5.430;2022-07-09T13:04:24;2.73;;;2.20;;
36001;SDS011;22070;50.922;5.430;2022-07-09T13:06:50;6.17;;;2.23;;
36001;SDS011;22070;50.922;5.430;2022-07-09T13:09:15;3.30;;;2.27;;
36001;SDS011;22070;50.922;5.430;2022-07-09T13:11:41;4.22;;;1.98;;
36001;SDS011;22070;50.922;5.430;2022-07-09T13:14:07;1.87;;;1.70;;
36001;SDS011;22070;50.922;5.430;2022-07-09T13:16:34;1.63;;;1.30;;
36001;SDS011;22070;50.922;5.430;2022-07-09T13:19:01;1.52;;;1.42;;
36001;SDS011;22070;50.922;5.430;2022-07-09T13:21:27;1.30;;;1.20;;
36001;SDS011;22070;50.922;5.430;2022-07-09T13:23:54;1.17;;;1.08;;
36001;SDS011;22070;50.922;5.430;2022-07-09T13:26:20;4.25;;;1.00;;
36001;SDS011;22070;50.922;5.430;2022-07-09T13:28:46;1.48;;;1.10;;
36001;SDS011;22070;50.922;5.430;2022-07-09T13:31:12;1.42;;;1.23;;
36001;SDS011;22070;50.922;5.430;2022-07-09T13:33:38;1.20;;;1.00;;
36001;SDS011;22070;50.922;5.430;2022-07-09T13:36:04;1.07;;;0.97;;
36001;SDS011;22070;50.922;5.430;2022-07-09T13:38:31;1.42;;;1.00;;
36001;SDS011;22070;50.922;5.430;2022-07-09T13:43:23;1.10;;;0.98;;
36001;SDS011;22070;50.922;5.430;2022-07-09T13:45:55;1.10;;;1.00;;
36001;SDS011;22070;50.922;5.430;2022-07-09T13:48:22;1.83;;;1.10;;
36001;SDS011;22070;50.922;5.430;2022-07-09T13:53:14;2.08;;;0.95;;
36001;SDS011;22070;50.922;5.430;2022-07-09T13:55:40;1.27;;;1.17;;
36001;SDS011;22070;50.922;5.430;2022-07-09T13:58:06;1.00;;;1.00;;
36001;SDS011;22070;50.922;5.430;2022-07-09T14:00:32;1.83;;;1.10;;
36001;SDS011;22070;50.922;5.430;2022-07-09T14:02:58;2.15;;;1.00;;
36001;SDS011;22070;50.922;5.430;2022-07-09T14:05:24;2.08;;;1.00;;
36001;SDS011;22070;50.922;5.430;2022-07-09T14:07:50;1.87;;;1.00;;
36001;SDS011;22070;50.922;5.430;2022-07-09T14:10:16;1.03;;;1.00;;
36001;SDS011;22070;50.922;5.430;2022-07-09T14:12:42;2.25;;;0.82;;
36001;SDS011;22070;50.922;5.430;2022-07-09T14:15:08;3.95;;;1.10;;
36001;SDS011;22070;50.922;5.430;2022-07-09T14:17:34;3.08;;;1.10;;
36001;SDS011;22070;50.922;5.430;2022-07-09T14:20:00;1.98;;;1.30;;
36001;SDS011;22070;50.922;5.430;2022-07-09T14:22:26;1.97;;;1.07;;
36001;SDS011;22070;50.922;5.430;2022-07-09T14:24:52;1.70;;;0.90;;
36001;SDS011;22070;50.922;5.430;2022-07-09T14:27:17;2.20;;;0.90;;
36001;SDS011;22070;50.922;5.430;2022-07-09T14:29:43;1.48;;;1.00;;
36001;SDS011;22070;50.922;5.430;2022-07-09T14:32:09;1.02;;;0.90;;
36001;SDS011;22070;50.922;5.430;2022-07-09T14:34:35;0.80;;;0.80;;
36001;SDS011;22070;50.922;5.430;2022-07-09T14:37:02;1.65;;;0.90;;
36001;SDS011;22070;50.922;5.430;2022-07-09T14:39:28;1.45;;;0.95;;
36001;SDS011;22070;50.922;5.430;2022-07-09T14:41:54;0.80;;;0.75;;
36001;SDS011;22070;50.922;5.430;2022-07-09T14:44:19;1.67;;;0.77;;
36001;SDS011;22070;50.922;5.430;2022-07-09T14:46:45;0.93;;;0.80;;
36001;SDS011;22070;50.922;5.430;2022-07-09T14:49:11;0.77;;;0.65;;